Terminal Aerodrome Forecast
Issued by NWS

Home | Current Version | Previous Version | Text Only | Print | Product List | Glossary On
Versions: 1 2 3 4 5 6 7 8 9 10 11 12 13 14 15 16 17 18 19 20 21 22 23 24 25 26 27 28 29 30 31 32 33 34 35 36 37 38
000
FTUS45 KSLC 230102 AAA
TAF36U
TAF AMD
K36U 230102Z 2301/2324 15013G20KT P6SM VCSH SCT050 BKN100
     FM230200 VRB05KT P6SM -SHRA SCT040 BKN080
     FM230600 VRB04KT 6SM -RA SCT020 BKN035
     FM231200 32008KT 5SM -RA SCT015 BKN030=

USA.gov is the U.S. government's official web portal to all federal, state and local government web resources and services.